Time;durP1;ratioP1;P1;durP2;ratioP2;P2;SDS_P1;SDS_P2;PMS_P1;PMS_P2;Temp;Humidity;BMP_temperature;BMP_pressure;BME280_temperature;BME280_humidity;BME280_pressure;Samples;Min_cycle;Max_cycle;Signal;HPM_P1;HPM_P2
2022/04/11 00:00:33;;;;;;;6.30;2.03;;;2.10;99.90;;;;;;5051224;28;20463;-84
2022/04/11 00:02:58;;;;;;;16.13;2.90;;;1.70;99.90;;;;;;5053057;28;20407;-83
2022/04/11 00:05:24;;;;;;;5.78;1.88;;;1.60;99.90;;;;;;5066674;28;20483;-83
2022/04/11 00:07:50;;;;;;;4.93;2.30;;;1.90;99.90;;;;;;5087613;28;20040;-83
2022/04/11 00:10:16;;;;;;;5.57;2.25;;;2.70;99.90;;;;;;5085375;28;20055;-84
2022/04/11 00:12:42;;;;;;;3.20;2.05;;;1.60;99.90;;;;;;5086970;28;20520;-84
2022/04/11 00:15:08;;;;;;;5.53;2.40;;;1.60;99.90;;;;;;5086216;28;20106;-84
2022/04/11 00:17:35;;;;;;;4.68;2.22;;;1.30;99.90;;;;;;5085534;28;20127;-84
2022/04/11 00:20:01;;;;;;;6.13;2.40;;;2.50;99.90;;;;;;5069054;28;20055;-84
2022/04/11 00:22:27;;;;;;;7.15;2.22;;;2.80;99.90;;;;;;5084839;28;20395;-84
2022/04/11 00:24:53;;;;;;;10.77;2.25;;;2.90;99.90;;;;;;5087529;28;20047;-84
2022/04/11 00:27:19;;;;;;;9.15;2.75;;;1.20;99.90;;;;;;5054615;28;20138;-82
2022/04/11 00:29:44;;;;;;;4.38;2.20;;;1.40;99.90;;;;;;5056005;28;20051;-83
2022/04/11 00:32:10;;;;;;;7.47;2.33;;;2.20;99.90;;;;;;5072172;28;20049;-83
2022/04/11 00:34:36;;;;;;;6.97;2.40;;;1.30;99.90;;;;;;5089396;28;20131;-83
2022/04/11 00:37:02;;;;;;;5.93;1.83;;;1.90;99.90;;;;;;5056596;28;20132;-82
2022/04/11 00:39:28;;;;;;;10.23;2.38;;;1.20;99.90;;;;;;5088708;28;20048;-82
2022/04/11 00:41:53;;;;;;;9.95;2.70;;;1.30;99.90;;;;;;5091406;28;20054;-83
2022/04/11 00:44:19;;;;;;;9.43;2.33;;;1.30;99.90;;;;;;5088791;28;20079;-82
2022/04/11 00:46:45;;;;;;;5.22;2.55;;;2.30;99.90;;;;;;5072278;28;20044;-81
2022/04/11 00:49:10;;;;;;;4.35;2.63;;;1.10;99.90;;;;;;5072072;28;20044;-82
2022/04/11 00:51:39;;;;;;;6.70;1.98;;;1.10;99.90;;;;;;5071078;28;20583;-82
2022/04/11 00:54:06;;;;;;;5.13;2.50;;;1.10;99.90;;;;;;5091199;28;20116;-82
2022/04/11 00:56:35;;;;;;;4.95;2.15;;;1.10;99.90;;;;;;5088320;28;20376;-82
2022/04/11 00:59:02;;;;;;;7.68;2.45;;;1.00;99.90;;;;;;5055818;28;20101;-82
2022/04/11 01:01:28;;;;;;;4.38;2.10;;;1.00;99.90;;;;;;5088395;28;20573;-83
2022/04/11 01:04:02;;;;;;;7.13;2.75;;;2.20;99.90;;;;;;5090074;28;20060;-82
2022/04/11 01:06:28;;;;;;;6.88;2.30;;;0.80;99.90;;;;;;5089969;28;20048;-83
2022/04/11 01:08:54;;;;;;;7.82;2.20;;;0.80;99.90;;;;;;5088885;28;20058;-83
2022/04/11 01:11:20;;;;;;;4.90;1.95;;;2.30;99.90;;;;;;5090834;28;20048;-83
2022/04/11 01:13:46;;;;;;;4.38;2.40;;;2.40;99.90;;;;;;5069373;28;20063;-84
2022/04/11 01:16:12;;;;;;;10.60;2.00;;;0.90;99.90;;;;;;5072676;28;20043;-83
2022/04/11 01:18:38;;;;;;;4.78;1.67;;;0.90;99.90;;;;;;5070046;28;20431;-83
2022/04/11 01:21:08;;;;;;;5.70;2.47;;;0.70;99.90;;;;;;5071902;28;20113;-83
2022/04/11 01:23:34;;;;;;;6.13;1.83;;;0.70;99.90;;;;;;5090340;28;20044;-83
2022/04/11 01:26:00;;;;;;;4.13;2.28;;;2.30;99.90;;;;;;5070018;28;20051;-83
2022/04/11 01:28:26;;;;;;;3.78;2.10;;;0.80;99.90;;;;;;5022552;28;20090;-84
2022/04/11 01:30:54;;;;;;;6.60;1.95;;;1.50;99.90;;;;;;5069299;28;20127;-83
2022/04/11 01:33:23;;;;;;;6.32;2.13;;;0.80;99.90;;;;;;5071994;28;20048;-84
2022/04/11 01:35:48;;;;;;;6.03;1.90;;;0.70;99.90;;;;;;5069767;28;20531;-83
2022/04/11 01:38:14;;;;;;;5.25;2.22;;;0.80;99.90;;;;;;5089378;28;20200;-82
2022/04/11 01:40:54;;;;;;;7.35;2.00;;;0.70;99.90;;;;;;5071419;28;20048;-83
2022/04/11 01:43:20;;;;;;;5.95;1.80;;;2.00;99.90;;;;;;5069762;28;20623;-82
2022/04/11 01:45:47;;;;;;;4.53;2.22;;;0.70;99.90;;;;;;5072308;28;20048;-82
2022/04/11 01:48:13;;;;;;;5.95;2.65;;;0.70;99.90;;;;;;5087068;28;20047;-82
2022/04/11 01:50:39;;;;;;;6.53;1.83;;;1.70;99.90;;;;;;5089910;28;20040;-83
2022/04/11 01:53:16;;;;;;;4.53;3.33;;;0.70;99.90;;;;;;5069973;28;20066;-83
2022/04/11 01:55:42;;;;;;;7.20;2.05;;;0.70;99.90;;;;;;5069958;28;20123;-83
2022/04/11 01:58:09;;;;;;;6.20;1.95;;;1.90;99.90;;;;;;5089937;28;20044;-84
2022/04/11 02:00:36;;;;;;;7.82;2.28;;;1.90;99.90;;;;;;5069067;28;20040;-83
2022/04/11 02:03:04;;;;;;;4.03;2.00;;;0.50;99.90;;;;;;5071882;28;20518;-83
2022/04/11 02:05:30;;;;;;;6.57;2.55;;;0.70;99.90;;;;;;5087424;28;20056;-82
2022/04/11 02:07:59;;;;;;;4.38;2.03;;;0.70;99.90;;;;;;5089619;28;20101;-83
2022/04/11 02:10:25;;;;;;;6.80;2.05;;;0.70;99.90;;;;;;5071060;28;20036;-83
2022/04/11 02:12:51;;;;;;;5.53;1.98;;;0.50;99.90;;;;;;5069581;28;20036;-83
2022/04/11 02:15:17;;;;;;;4.90;1.75;;;0.70;99.90;;;;;;5071185;28;20052;-83
2022/04/11 02:17:46;;;;;;;3.85;1.85;;;0.70;99.90;;;;;;5086500;28;20483;-83
2022/04/11 02:20:13;;;;;;;5.30;1.85;;;1.70;99.90;;;;;;5090610;28;20032;-83
2022/04/11 02:23:03;;;;;;;3.25;1.90;;;0.50;99.90;;;;;;5069710;28;20044;-84
2022/04/11 02:25:33;;;;;;;5.03;2.10;;;0.60;99.90;;;;;;5075234;28;20048;-83
2022/04/11 02:27:59;;;;;;;5.50;1.85;;;0.50;99.90;;;;;;5076477;28;20059;-84
2022/04/11 02:30:26;;;;;;;6.75;2.53;;;0.50;99.90;;;;;;5088677;28;20483;-84
2022/04/11 02:32:54;;;;;;;3.65;1.73;;;0.60;99.90;;;;;;5089561;28;20166;-83
2022/04/11 02:35:20;;;;;;;6.65;2.63;;;0.70;99.90;;;;;;5035564;28;20052;-83
2022/04/11 02:37:47;;;;;;;6.07;2.13;;;0.90;99.90;;;;;;5070765;28;20044;-84
2022/04/11 02:40:13;;;;;;;4.93;2.20;;;0.70;99.90;;;;;;5052992;28;20075;-84
2022/04/11 02:42:43;;;;;;;4.05;1.98;;;0.70;99.90;;;;;;5068753;28;20055;-84
2022/04/11 02:45:14;;;;;;;4.13;2.25;;;2.10;99.90;;;;;;5089056;28;20052;-83
2022/04/11 02:47:40;;;;;;;10.77;2.35;;;2.00;99.90;;;;;;5085863;28;20499;-83
2022/04/11 02:50:07;;;;;;;4.82;1.88;;;0.60;99.90;;;;;;5088646;28;20051;-84
2022/04/11 02:52:32;;;;;;;6.05;2.35;;;0.60;99.90;;;;;;5086582;28;20040;-83
2022/04/11 02:55:01;;;;;;;4.78;1.80;;;1.80;99.90;;;;;;5088770;28;20055;-83
2022/04/11 02:57:29;;;;;;;2.95;1.63;;;1.70;99.90;;;;;;5069957;28;20495;-83
2022/04/11 02:59:55;;;;;;;2.45;1.70;;;1.00;99.90;;;;;;5069255;28;20263;-83
2022/04/11 03:02:21;;;;;;;2.83;2.10;;;1.80;99.90;;;;;;5070475;28;20105;-83
2022/04/11 03:04:46;;;;;;;3.78;2.17;;;0.40;99.90;;;;;;5067022;28;20047;-83
2022/04/11 03:07:12;;;;;;;3.70;1.75;;;0.50;99.90;;;;;;5088758;28;20042;-82
2022/04/11 03:09:38;;;;;;;4.60;1.92;;;1.70;99.90;;;;;;5051162;28;20347;-82
2022/04/11 03:12:05;;;;;;;5.82;2.10;;;2.00;99.90;;;;;;5053082;28;20541;-83
2022/04/11 03:14:31;;;;;;;5.40;2.25;;;0.40;99.90;;;;;;5069145;28;20126;-83
2022/04/11 03:16:56;;;;;;;8.10;2.40;;;1.60;99.90;;;;;;5086338;28;20086;-84
2022/04/11 03:19:22;;;;;;;6.63;2.28;;;0.30;99.90;;;;;;5070020;28;20113;-83
2022/04/11 03:21:48;;;;;;;3.33;2.25;;;0.50;99.90;;;;;;5067530;28;20036;-82
2022/04/11 03:24:14;;;;;;;2.75;1.77;;;1.60;99.90;;;;;;5070109;28;20044;-82
2022/04/11 03:26:40;;;;;;;3.78;1.70;;;0.50;99.90;;;;;;5085702;28;20100;-81
2022/04/11 03:29:06;;;;;;;6.35;2.13;;;0.50;99.90;;;;;;5069888;28;20423;-82
2022/04/11 03:31:31;;;;;;;3.88;1.45;;;0.40;99.90;;;;;;5087218;28;20151;-83
2022/04/11 03:33:57;;;;;;;4.43;1.83;;;0.60;99.90;;;;;;5051204;28;20048;-81
2022/04/11 03:36:24;;;;;;;6.90;1.95;;;0.50;99.90;;;;;;5088045;28;20036;-83
2022/04/11 03:38:50;;;;;;;2.53;1.48;;;0.50;99.90;;;;;;5067362;28;20047;-83
2022/04/11 03:41:16;;;;;;;3.28;2.08;;;2.00;99.90;;;;;;5070126;28;20040;-83
2022/04/11 03:43:42;;;;;;;5.35;3.25;;;2.20;99.90;;;;;;5085248;28;20044;-83
2022/04/11 03:46:08;;;;;;;4.82;2.30;;;0.80;99.90;;;;;;5087686;28;20044;-84
2022/04/11 03:48:34;;;;;;;5.00;2.10;;;1.70;99.90;;;;;;5087072;28;20044;-84
2022/04/11 03:51:00;;;;;;;6.15;1.70;;;0.90;99.90;;;;;;5051420;28;20086;-83
2022/04/11 03:53:26;;;;;;;2.95;1.67;;;1.00;99.90;;;;;;5069839;28;20052;-83
2022/04/11 03:55:52;;;;;;;6.93;1.60;;;2.20;99.90;;;;;;5084706;28;20047;-83
2022/04/11 03:58:17;;;;;;;3.95;2.80;;;1.10;99.90;;;;;;5070086;28;20052;-83
2022/04/11 04:00:43;;;;;;;4.38;1.65;;;1.10;99.90;;;;;;5084257;28;20541;-83
2022/04/11 04:03:11;;;;;;;3.83;2.38;;;2.10;99.90;;;;;;5087431;28;20126;-83
2022/04/11 04:05:45;;;;;;;7.38;2.33;;;1.30;99.90;;;;;;5086608;28;20043;-82
2022/04/11 04:08:12;;;;;;;4.50;1.77;;;1.30;99.90;;;;;;5085429;28;20105;-83
2022/04/11 04:10:40;;;;;;;7.95;2.50;;;2.20;99.90;;;;;;5087794;28;20055;-83
2022/04/11 04:13:06;;;;;;;2.50;1.58;;;1.40;99.90;;;;;;5084643;28;20044;-82
2022/04/11 04:15:32;;;;;;;3.85;1.73;;;1.40;99.90;;;;;;5087146;28;20123;-83
2022/04/11 04:17:58;;;;;;;2.72;1.67;;;3.00;99.90;;;;;;5050476;28;20127;-84
2022/04/11 04:20:26;;;;;;;4.00;2.10;;;2.80;99.90;;;;;;5069039;28;20154;-84
2022/04/11 04:22:55;;;;;;;4.57;2.08;;;1.30;99.90;;;;;;5068311;28;20040;-84
2022/04/11 04:25:21;;;;;;;4.35;2.17;;;3.00;99.90;;;;;;5085325;28;20093;-84
2022/04/11 04:27:47;;;;;;;7.28;1.98;;;1.60;99.90;;;;;;5069364;28;20044;-83
2022/04/11 04:30:14;;;;;;;7.15;2.00;;;3.00;99.90;;;;;;5066785;28;20090;-84
2022/04/11 04:32:40;;;;;;;3.83;1.95;;;1.70;99.90;;;;;;5087672;28;20073;-83
2022/04/11 04:35:07;;;;;;;6.30;2.60;;;3.00;99.90;;;;;;5085188;28;20044;-83
2022/04/11 04:37:33;;;;;;;4.93;2.50;;;1.70;99.90;;;;;;5086712;28;20045;-83
2022/04/11 04:39:59;;;;;;;3.90;1.80;;;1.60;99.90;;;;;;5068137;28;20052;-83
2022/04/11 04:42:26;;;;;;;5.60;2.40;;;1.60;99.90;;;;;;5066544;28;20044;-83
2022/04/11 04:44:53;;;;;;;3.63;2.38;;;1.80;99.90;;;;;;5069384;28;20380;-82
2022/04/11 04:47:19;;;;;;;5.15;2.50;;;1.70;99.90;;;;;;5084648;28;20503;-82
2022/04/11 04:49:46;;;;;;;7.03;2.42;;;1.70;99.90;;;;;;5087560;28;20114;-83
2022/04/11 04:52:12;;;;;;;4.50;2.90;;;2.20;99.90;;;;;;5086134;28;20101;-83
2022/04/11 04:54:38;;;;;;;3.53;2.25;;;3.10;99.90;;;;;;5090428;28;20036;-83
2022/04/11 04:57:05;;;;;;;6.57;2.22;;;3.40;99.90;;;;;;5075068;28;20055;-82
2022/04/11 04:59:30;;;;;;;3.70;2.47;;;1.90;99.90;;;;;;5085672;28;20261;-83
2022/04/11 05:01:56;;;;;;;6.03;2.97;;;1.90;99.90;;;;;;5087853;28;20653;-83
2022/04/11 05:04:22;;;;;;;4.30;1.98;;;2.00;99.90;;;;;;5066126;28;20075;-82
2022/04/11 05:06:48;;;;;;;6.57;2.13;;;2.00;99.90;;;;;;5087078;28;20495;-86
2022/04/11 05:09:14;;;;;;;4.78;2.63;;;2.00;99.90;;;;;;5067057;28;20040;-82
2022/04/11 05:11:40;;;;;;;5.25;2.25;;;2.40;99.90;;;;;;5087962;28;20039;-83
2022/04/11 05:14:05;;;;;;;4.80;2.70;;;2.10;99.90;;;;;;5071745;28;20094;-80
2022/04/11 05:16:31;;;;;;;4.15;2.45;;;2.10;99.90;;;;;;5089365;28;20040;-79
2022/04/11 05:18:57;;;;;;;6.53;2.47;;;3.30;99.90;;;;;;5039610;28;20126;-80
2022/04/11 05:21:23;;;;;;;5.72;2.55;;;3.70;99.90;;;;;;5070140;28;20097;-82
2022/04/11 05:23:49;;;;;;;6.57;2.53;;;3.70;99.90;;;;;;5073490;28;20047;-82
2022/04/11 05:26:14;;;;;;;5.15;2.15;;;3.20;99.90;;;;;;5070206;28;20445;-82
2022/04/11 05:28:40;;;;;;;4.80;2.28;;;2.40;99.90;;;;;;5039426;28;20575;-83
2022/04/11 05:31:06;;;;;;;4.28;2.40;;;2.80;99.90;;;;;;5071894;28;20055;-82
2022/04/11 05:33:32;;;;;;;4.47;2.40;;;2.50;99.90;;;;;;5088699;28;20055;-82
2022/04/11 05:35:57;;;;;;;9.90;3.08;;;2.60;99.90;;;;;;5090460;28;20126;-82
2022/04/11 05:38:23;;;;;;;4.53;2.70;;;3.50;99.90;;;;;;5087763;28;20414;-82
2022/04/11 05:40:49;;;;;;;4.25;2.40;;;3.60;99.90;;;;;;5090339;28;20066;-83
2022/04/11 05:43:15;;;;;;;5.40;2.50;;;3.70;99.90;;;;;;5087790;28;20088;-83
2022/04/11 05:45:41;;;;;;;7.70;1.98;;;2.80;99.90;;;;;;5071656;28;20036;-83
2022/04/11 05:48:07;;;;;;;6.18;2.25;;;2.90;99.90;;;;;;5089356;28;20437;-83
2022/04/11 05:50:33;;;;;;;4.55;2.65;;;4.30;99.90;;;;;;5070788;28;20177;-83
2022/04/11 05:53:00;;;;;;;7.22;2.63;;;4.30;99.90;;;;;;5071622;28;20047;-83
2022/04/11 05:55:26;;;;;;;15.13;2.40;;;3.10;99.90;;;;;;5051906;28;20056;-83
2022/04/11 05:57:53;;;;;;;7.03;2.38;;;3.10;99.90;;;;;;5037948;28;20109;-81
2022/04/11 06:00:19;;;;;;;6.47;2.50;;;3.20;99.90;;;;;;5053674;28;20044;-82
2022/04/11 06:02:45;;;;;;;10.80;2.60;;;4.70;99.90;;;;;;5089764;28;20043;-82
2022/04/11 06:05:11;;;;;;;7.80;1.95;;;4.50;99.90;;;;;;5088737;28;20051;-82
2022/04/11 06:07:37;;;;;;;5.00;2.13;;;4.80;99.90;;;;;;5088209;28;20556;-81
2022/04/11 06:10:04;;;;;;;5.38;2.50;;;4.10;99.90;;;;;;5089836;28;20040;-82
2022/04/11 06:12:30;;;;;;;6.63;2.50;;;3.40;99.90;;;;;;5068262;28;20058;-81
2022/04/11 06:14:56;;;;;;;3.58;2.40;;;3.90;99.90;;;;;;5089578;28;20055;-81
2022/04/11 06:17:23;;;;;;;4.65;2.63;;;4.50;99.90;;;;;;5052068;28;20055;-82
2022/04/11 06:19:53;;;;;;;4.50;2.45;;;3.60;99.90;;;;;;5089602;28;20422;-82
2022/04/11 06:22:19;;;;;;;5.20;2.45;;;3.60;99.90;;;;;;5088102;28;20044;-82
2022/04/11 06:24:46;;;;;;;3.65;2.10;;;3.70;99.90;;;;;;5087184;28;20089;-82
2022/04/11 06:27:12;;;;;;;3.42;1.60;;;4.90;99.90;;;;;;5089316;28;20042;-82
2022/04/11 06:29:38;;;;;;;3.70;1.67;;;5.30;99.90;;;;;;5068376;28;20055;-82
2022/04/11 06:32:05;;;;;;;6.65;2.53;;;5.40;99.90;;;;;;5089789;28;20651;-82
2022/04/11 06:34:36;;;;;;;9.98;2.17;;;4.00;99.90;;;;;;5086148;28;20479;-83
2022/04/11 06:37:02;;;;;;;7.57;5.22;;;4.10;99.90;;;;;;5070900;28;20503;-82
2022/04/11 06:39:28;;;;;;;6.45;4.15;;;4.20;99.90;;;;;;5087955;28;20032;-82
2022/04/11 06:41:54;;;;;;;4.35;2.90;;;4.60;99.90;;;;;;5069436;28;20371;-82
2022/04/11 06:44:20;;;;;;;4.93;2.70;;;4.70;99.90;;;;;;5089019;28;20387;-82
2022/04/11 06:46:46;;;;;;;7.45;3.22;;;5.80;99.90;;;;;;5051008;28;20093;-82
2022/04/11 06:49:11;;;;;;;5.60;3.03;;;4.50;99.90;;;;;;5089011;28;20036;-82
2022/04/11 06:51:37;;;;;;;4.88;2.38;;;5.80;99.90;;;;;;5086170;28;20047;-82
2022/04/11 06:54:04;;;;;;;12.18;2.25;;;4.70;99.90;;;;;;5053584;28;20044;-82
2022/04/11 06:56:30;;;;;;;6.43;2.10;;;4.90;99.90;;;;;;5087366;28;20553;-82
2022/04/11 06:58:56;;;;;;;6.22;2.08;;;4.90;99.90;;;;;;5088009;28;20548;-81
2022/04/11 07:01:22;;;;;;;4.30;2.03;;;5.00;99.90;;;;;;5088247;28;20556;-82
2022/04/11 07:03:47;;;;;;;6.60;1.83;;;6.50;99.90;;;;;;5085619;28;20036;-82
2022/04/11 07:06:13;;;;;;;7.07;1.50;;;6.70;99.90;;;;;;5088432;28;20044;-82
2022/04/11 07:08:39;;;;;;;3.53;1.50;;;5.40;99.90;;;;;;5085507;28;20130;-82
2022/04/11 07:11:06;;;;;;;3.45;1.25;;;5.60;99.90;;;;;;5088511;28;20036;-82
2022/04/11 07:13:33;;;;;;;3.08;1.33;;;5.60;99.90;;;;;;5086580;28;20044;-82
2022/04/11 07:15:59;;;;;;;2.67;1.40;;;5.70;99.90;;;;;;5087333;28;20075;-82
2022/04/11 07:18:27;;;;;;;9.82;1.60;;;5.80;99.90;;;;;;5052825;28;20409;-82
2022/04/11 07:20:56;;;;;;;4.93;1.15;;;5.90;99.90;;;;;;5067880;28;20104;-81
2022/04/11 07:23:22;;;;;;;4.47;1.20;;;7.40;99.90;;;;;;5088510;28;20051;-82
2022/04/11 07:25:48;;;;;;;7.00;0.90;;;6.10;99.90;;;;;;5067410;28;20432;-82
2022/04/11 07:28:16;;;;;;;5.55;0.80;;;6.40;99.90;;;;;;5070022;28;20048;-82
2022/04/11 07:30:43;;;;;;;2.42;0.80;;;6.40;99.90;;;;;;5086939;28;20480;-82
2022/04/11 07:33:09;;;;;;;8.15;1.30;;;6.40;99.90;;;;;;5086979;28;20046;-82
2022/04/11 07:35:35;;;;;;;5.72;1.05;;;7.10;99.90;;;;;;5087955;28;20138;-82
2022/04/11 07:38:01;;;;;;;5.85;1.10;;;7.90;99.90;;;;;;5085601;28;20115;-82
2022/04/11 07:40:30;;;;;;;1.95;1.00;;;7.30;99.90;;;;;;5087972;28;20048;-82
2022/04/11 07:42:56;;;;;;;7.07;1.15;;;6.80;99.90;;;;;;5084895;28;20052;-82
2022/04/11 07:45:22;;;;;;;5.28;1.35;;;6.90;99.90;;;;;;5069517;28;20054;-82
2022/04/11 07:47:48;;;;;;;6.60;1.25;;;7.80;99.90;;;;;;5051719;28;20047;-82
2022/04/11 07:50:14;;;;;;;4.30;1.20;;;7.10;99.90;;;;;;5086378;28;20545;-82
2022/04/11 07:52:42;;;;;;;8.48;1.00;;;8.50;99.90;;;;;;5087427;28;20514;-82
2022/04/11 07:55:09;;;;;;;3.60;1.50;;;7.30;99.90;;;;;;5084726;28;20509;-82
2022/04/11 07:57:35;;;;;;;3.20;0.95;;;7.40;99.90;;;;;;5087960;28;20102;-83
2022/04/11 08:00:01;;;;;;;6.30;1.30;;;8.40;99.90;;;;;;5085094;28;20392;-81
2022/04/11 08:02:27;;;;;;;5.40;1.13;;;7.70;99.90;;;;;;5087321;28;20052;-82
2022/04/11 08:04:54;;;;;;;3.45;0.98;;;7.70;99.90;;;;;;5085902;28;20058;-82
2022/04/11 08:07:20;;;;;;;12.10;1.35;;;8.70;99.90;;;;;;5086249;28;20566;-83
2022/04/11 08:09:48;;;;;;;4.53;1.20;;;7.90;99.90;;;;;;5087329;28;20527;-82
2022/04/11 08:12:16;;;;;;;3.47;0.93;;;8.00;99.90;;;;;;5084578;28;20044;-82
2022/04/11 08:14:42;;;;;;;6.10;1.20;;;8.00;99.90;;;;;;5065913;28;20063;-82
2022/04/11 08:17:11;;;;;;;3.92;0.63;;;9.20;99.90;;;;;;5063267;28;20220;-82
2022/04/11 08:19:37;;;;;;;6.18;1.00;;;9.40;99.90;;;;;;5067443;28;20040;-81
2022/04/11 08:22:02;;;;;;;7.25;0.73;;;9.20;99.90;;;;;;5065791;28;20047;-81
2022/04/11 08:24:28;;;;;;;6.50;0.60;;;8.40;99.90;;;;;;5064704;28;20547;-81
2022/04/11 08:26:54;;;;;;;3.63;0.70;;;8.60;99.90;;;;;;5066888;28;20049;-81
2022/04/11 08:29:20;;;;;;;5.53;0.93;;;8.70;99.90;;;;;;5064969;28;20085;-77
2022/04/11 08:31:46;;;;;;;6.53;0.75;;;9.30;99.90;;;;;;5068348;28;20059;-76
2022/04/11 08:34:11;;;;;;;3.13;0.80;;;9.00;99.90;;;;;;5065758;28;20048;-76
2022/04/11 08:36:37;;;;;;;4.72;0.70;;;9.10;99.90;;;;;;5068110;28;20546;-76
2022/04/11 08:39:03;;;;;;;3.95;0.60;;;9.20;99.90;;;;;;5066479;28;20076;-76
2022/04/11 08:41:36;;;;;;;1.90;0.43;;;9.40;99.90;;;;;;5065751;28;20040;-77
2022/04/11 08:44:04;;;;;;;;;;;9.60;99.90;;;;;;5068671;28;20396;-78
2022/04/11 08:46:31;;;;;;;2.10;0.50;;;9.70;99.10;;;;;;5066621;28;20007;-78
2022/04/11 08:48:59;;;;;;;3.65;0.75;;;9.90;99.90;;;;;;5070839;28;20041;-77
2022/04/11 08:51:26;;;;;;;3.28;0.82;;;10.10;99.90;;;;;;5069858;28;20052;-78
2022/04/11 08:53:52;;;;;;;3.13;0.60;;;10.30;99.90;;;;;;5071993;28;20501;-77
2022/04/11 08:56:18;;;;;;;2.97;0.63;;;10.40;99.90;;;;;;5069606;28;20135;-78
2022/04/11 08:58:44;;;;;;;1.67;0.65;;;11.30;99.90;;;;;;5070342;28;20131;-78
2022/04/11 09:01:10;;;;;;;3.08;0.57;;;10.70;99.90;;;;;;5070049;28;20049;-78
2022/04/11 09:03:35;;;;;;;5.60;0.65;;;10.80;99.90;;;;;;5069339;28;20094;-77
2022/04/11 09:06:07;;;;;;;4.32;0.70;;;10.80;99.70;;;;;;5069930;28;20045;-78
2022/04/11 09:08:56;;;;;;;7.40;0.95;;;10.80;98.60;;;;;;5068033;28;20036;-77
2022/04/11 09:11:36;;;;;;;4.30;0.60;;;11.70;93.60;;;;;;5067531;28;20419;-77
2022/04/11 09:14:03;;;;;;;2.53;0.68;;;11.10;95.60;;;;;;5069357;28;20530;-76
2022/04/11 09:16:47;;;;;;;2.38;0.50;;;11.20;97.90;;;;;;5067420;28;20052;-76
2022/04/11 09:19:25;;;;;;;1.40;0.60;;;11.30;94.50;;;;;;5071450;28;20058;-76
2022/04/11 09:21:54;;;;;;;3.88;0.68;;;11.60;94.20;;;;;;5068642;28;20222;-77
2022/04/11 09:24:26;;;;;;;4.22;0.88;;;11.50;95.40;;;;;;5052081;28;20579;-77
2022/04/11 09:26:55;;;;;;;2.70;0.73;;;11.60;94.50;;;;;;5069589;28;20053;-77
2022/04/11 09:29:23;;;;;;;3.10;0.50;;;11.60;93.90;;;;;;5067117;28;20036;-77
2022/04/11 09:31:49;;;;;;;3.65;0.60;;;11.70;92.40;;;;;;5069864;28;20456;-77
2022/04/11 09:34:28;;;;;;;5.10;0.68;;;11.90;91.60;;;;;;5068866;28;20052;-77
2022/04/11 09:36:56;;;;;;;2.22;0.73;;;12.20;86.50;;;;;;5053049;28;20087;-77
2022/04/11 09:39:27;;;;;;;2.17;0.60;;;12.40;85.30;;;;;;5069084;28;20044;-78
2022/04/11 09:41:53;;;;;;;2.92;0.80;;;12.50;81.30;;;;;;5067574;28;20580;-77
2022/04/11 09:44:28;;;;;;;1.98;0.60;;;12.60;82.20;;;;;;5053168;28;20051;-77
2022/04/11 09:46:57;;;;;;;1.75;0.70;;;12.90;74.50;;;;;;5066903;28;20097;-78
2022/04/11 09:49:24;;;;;;;2.25;0.80;;;13.00;75.60;;;;;;5052618;28;20095;-78
2022/04/11 09:52:11;;;;;;;2.97;0.70;;;13.10;73.70;;;;;;5067827;28;20124;-78
2022/04/11 09:54:44;;;;;;;6.40;1.00;;;13.20;67.80;;;;;;5034887;28;20040;-77
2022/04/11 09:57:14;;;;;;;;;;;13.30;71.20;;;;;;5069660;28;20056;-77
2022/04/11 09:59:40;;;;;;;3.53;1.00;;;13.30;63.10;;;;;;5049032;28;19924;-77
2022/04/11 10:02:07;;;;;;;3.47;0.95;;;13.30;70.60;;;;;;5068604;28;20090;-77
2022/04/11 10:04:34;;;;;;;7.80;1.13;;;13.20;71.30;;;;;;5067147;28;20037;-77
2022/04/11 10:07:00;;;;;;;4.43;1.02;;;13.30;72.40;;;;;;5068271;28;20044;-77
2022/04/11 10:09:26;;;;;;;4.63;1.05;;;13.10;71.50;;;;;;5068678;28;20048;-77
2022/04/11 10:11:53;;;;;;;5.32;0.85;;;13.10;70.90;;;;;;5067152;28;20476;-77
2022/04/11 10:14:26;;;;;;;5.65;0.90;;;13.20;70.80;;;;;;5052011;28;20060;-77
2022/04/11 10:16:55;;;;;;;3.45;0.77;;;13.30;70.50;;;;;;5034842;28;20458;-78
2022/04/11 10:19:27;;;;;;;3.15;0.60;;;13.30;69.00;;;;;;5068584;28;20045;-78
2022/04/11 10:21:55;;;;;;;;;;;13.30;67.50;;;;;;5051957;28;20056;-78
2022/04/11 10:24:34;;;;;;;1.52;0.73;;;13.30;58.90;;;;;;5069003;28;19927;-78
2022/04/11 10:27:22;;;;;;;2.47;0.77;;;13.20;65.00;;;;;;5068592;28;20053;-77
2022/04/11 10:29:52;;;;;;;2.13;0.60;;;13.30;65.70;;;;;;5066346;28;20037;-76
2022/04/11 10:32:20;;;;;;;2.60;0.80;;;13.30;67.90;;;;;;5068053;28;20056;-77
2022/04/11 10:35:07;;;;;;;2.83;0.70;;;13.30;67.00;;;;;;5050958;28;20052;-79
2022/04/11 10:37:38;;;;;;;1.75;0.98;;;13.40;64.20;;;;;;5049894;28;20040;-78
2022/04/11 10:40:16;;;;;;;1.45;0.60;;;13.40;64.00;;;;;;5051642;28;20044;-78
2022/04/11 10:43:09;;;;;;;1.23;0.52;;;13.50;62.00;;;;;;5066094;28;20045;-78
2022/04/11 10:45:40;;;;;;;1.25;0.50;;;13.60;60.00;;;;;;5067288;28;20376;-78
2022/04/11 10:48:07;;;;;;;2.83;1.58;;;13.70;61.90;;;;;;5051315;28;20045;-78
2022/04/11 10:50:35;;;;;;;4.05;0.75;;;13.60;61.90;;;;;;5065702;28;20047;-78
2022/04/11 10:53:16;;;;;;;4.97;1.00;;;13.70;62.80;;;;;;5035691;28;20411;-78
2022/04/11 10:56:03;;;;;;;4.72;0.68;;;13.80;62.70;;;;;;5066222;28;20491;-78
2022/04/11 10:59:01;;;;;;;1.63;0.77;;;13.90;59.10;;;;;;5066573;28;20059;-77
2022/04/11 11:01:46;;;;;;;2.60;0.65;;;13.90;56.50;;;;;;5045590;28;20063;-77
2022/04/11 11:04:20;;;;;;;2.17;0.65;;;13.90;56.10;;;;;;5066195;28;20048;-78
2022/04/11 11:06:47;;;;;;;2.47;0.70;;;13.90;60.90;;;;;;5066925;28;20056;-77
2022/04/11 11:09:16;;;;;;;2.80;0.80;;;14.00;62.20;;;;;;5067466;28;20193;-77
2022/04/11 11:11:42;;;;;;;1.45;0.55;;;14.20;60.40;;;;;;5066262;28;20048;-78
2022/04/11 11:14:37;;;;;;;2.53;1.10;;;14.20;60.50;;;;;;5067718;28;20603;-78
2022/04/11 11:17:03;;;;;;;4.63;1.02;;;14.40;56.10;;;;;;5067471;28;20041;-78
2022/04/11 11:19:29;;;;;;;2.45;1.17;;;14.80;60.30;;;;;;5066870;28;20051;-78
2022/04/11 11:21:55;;;;;;;4.15;0.80;;;14.50;59.50;;;;;;5066711;28;20128;-78
2022/04/11 11:24:20;;;;;;;3.65;1.05;;;14.40;58.90;;;;;;5066121;28;20070;-78
2022/04/11 11:26:48;;;;;;;4.88;1.35;;;14.40;58.80;;;;;;5067410;28;20427;-78
2022/04/11 11:29:17;;;;;;;3.50;1.25;;;14.50;58.50;;;;;;5048574;28;20048;-78
2022/04/11 11:31:43;;;;;;;2.75;1.05;;;14.60;58.50;;;;;;5067018;28;20339;-78
2022/04/11 11:34:11;;;;;;;2.38;0.88;;;14.70;57.90;;;;;;5048421;28;20056;-78
2022/04/11 11:36:37;;;;;;;4.20;1.48;;;14.70;57.40;;;;;;5050183;28;20426;-78
2022/04/11 11:39:19;;;;;;;2.33;1.05;;;14.80;57.30;;;;;;5066149;28;20067;-78
2022/04/11 11:41:52;;;;;;;2.63;1.08;;;14.90;55.20;;;;;;5065099;28;20048;-77
2022/04/11 11:44:19;;;;;;;3.92;1.10;;;14.80;56.00;;;;;;5067340;28;20048;-78
2022/04/11 11:46:54;;;;;;;3.67;1.20;;;14.80;56.80;;;;;;5048589;28;20044;-78
2022/04/11 11:49:25;;;;;;;2.97;0.82;;;15.00;56.90;;;;;;5067101;28;20056;-78
2022/04/11 11:51:52;;;;;;;3.05;1.30;;;15.00;55.60;;;;;;5065901;28;20051;-78
2022/04/11 11:54:37;;;;;;;5.85;1.50;;;15.00;55.70;;;;;;5065102;28;20139;-78
2022/04/11 11:57:15;;;;;;;3.63;1.25;;;15.10;54.90;;;;;;5067165;28;20032;-76
2022/04/11 11:59:48;;;;;;;1.75;0.95;;;15.10;55.30;;;;;;5066556;28;20072;-76
2022/04/11 12:04:58;;;;;;;2.30;0.93;;;15.20;56.20;;;;;;5067760;28;20044;-78
2022/04/11 12:07:24;;;;;;;6.78;1.40;;;15.20;55.50;;;;;;5031423;28;20247;-78
2022/04/11 12:09:50;;;;;;;7.57;2.00;;;15.30;56.40;;;;;;5066718;28;20040;-77
2022/04/11 12:12:20;;;;;;;2.17;1.08;;;15.30;55.70;;;;;;5065231;28;20082;-77
2022/04/11 12:15:00;;;;;;;5.13;1.15;;;15.40;55.30;;;;;;5066233;28;20059;-78
2022/04/11 12:17:40;;;;;;;5.65;1.73;;;15.40;54.40;;;;;;5048857;28;20051;-80
2022/04/11 12:20:12;;;;;;;3.80;2.10;;;15.40;54.90;;;;;;5064806;28;20040;-76
2022/04/11 12:22:39;;;;;;;3.13;1.17;;;15.50;54.70;;;;;;5067754;28;20124;-77
2022/04/11 12:25:22;;;;;;;5.43;1.30;;;15.60;54.60;;;;;;5066009;28;20059;-76
2022/04/11 12:27:49;;;;;;;;;;;15.70;52.20;;;;;;5066527;28;20094;-77
2022/04/11 12:30:15;;;;;;;4.05;1.27;;;15.80;52.30;;;;;;5067104;28;20077;-77
2022/04/11 12:32:41;;;;;;;6.72;1.40;;;15.90;55.00;;;;;;5066606;28;20036;-77
2022/04/11 12:35:18;;;;;;;5.68;1.52;;;16.00;54.70;;;;;;5065975;28;20040;-77
2022/04/11 12:37:51;;;;;;;2.28;0.95;;;16.10;53.10;;;;;;5047639;28;20057;-77
2022/04/11 12:40:17;;;;;;;4.55;1.25;;;16.10;53.90;;;;;;5066629;28;20138;-78
2022/04/11 12:42:43;;;;;;;1.67;1.00;;;16.20;54.00;;;;;;5047915;28;20083;-78
2022/04/11 12:45:13;;;;;;;4.47;1.38;;;16.30;53.10;;;;;;5067203;28;20469;-78
2022/04/11 12:48:04;;;;;;;2.63;1.30;;;16.40;52.70;;;;;;5066297;28;20044;-78
2022/04/11 12:50:31;;;;;;;3.42;1.55;;;16.40;51.30;;;;;;5064915;28;20067;-78
2022/04/11 12:52:57;;;;;;;4.63;1.35;;;16.40;52.80;;;;;;5066232;28;20086;-76
2022/04/11 12:55:29;;;;;;;4.38;1.50;;;16.50;52.80;;;;;;5064316;28;20581;-77
2022/04/11 12:58:06;;;;;;;3.13;1.63;;;16.50;52.40;;;;;;5048872;28;20040;-77
2022/04/11 13:00:34;;;;;;;3.13;1.38;;;16.60;51.90;;;;;;5066024;28;20120;-77
2022/04/11 13:03:01;;;;;;;3.42;1.70;;;16.80;52.30;;;;;;5064472;28;20059;-75